sensor_id;sensor_type;location;lat;lon;timestamp;temperature;humidity
66928;DHT22;59882;45.624;11.698;2023-02-27T00:02:10;6.40;50.00
66928;DHT22;59882;45.624;11.698;2023-02-27T00:04:36;6.40;49.90
66928;DHT22;59882;45.624;11.698;2023-02-27T00:07:01;6.30;50.00
66928;DHT22;59882;45.624;11.698;2023-02-27T00:09:27;6.30;50.30
66928;DHT22;59882;45.624;11.698;2023-02-27T00:11:53;6.30;50.00
66928;DHT22;59882;45.624;11.698;2023-02-27T00:14:18;6.30;50.00
66928;DHT22;59882;45.624;11.698;2023-02-27T00:16:44;6.30;50.00
66928;DHT22;59882;45.624;11.698;2023-02-27T00:19:09;6.30;49.80
66928;DHT22;59882;45.624;11.698;2023-02-27T00:21:36;6.30;49.80
66928;DHT22;59882;45.624;11.698;2023-02-27T00:24:02;6.20;49.60
66928;DHT22;59882;45.624;11.698;2023-02-27T00:26:28;6.20;50.20
66928;DHT22;59882;45.624;11.698;2023-02-27T00:28:53;6.20;50.10
66928;DHT22;59882;45.624;11.698;2023-02-27T00:31:19;6.20;50.20
66928;DHT22;59882;45.624;11.698;2023-02-27T00:33:45;6.20;50.40
66928;DHT22;59882;45.624;11.698;2023-02-27T00:36:10;6.30;50.20
66928;DHT22;59882;45.624;11.698;2023-02-27T00:38:36;6.30;50.30
66928;DHT22;59882;45.624;11.698;2023-02-27T00:41:02;6.30;50.30
66928;DHT22;59882;45.624;11.698;2023-02-27T00:43:27;6.30;50.20
66928;DHT22;59882;45.624;11.698;2023-02-27T00:45:53;6.30;49.90
66928;DHT22;59882;45.624;11.698;2023-02-27T00:48:19;6.30;50.20
66928;DHT22;59882;45.624;11.698;2023-02-27T00:50:44;6.30;50.10
66928;DHT22;59882;45.624;11.698;2023-02-27T00:53:10;6.30;50.00
66928;DHT22;59882;45.624;11.698;2023-02-27T00:55:36;6.30;49.80
66928;DHT22;59882;45.624;11.698;2023-02-27T00:58:01;6.30;50.10
66928;DHT22;59882;45.624;11.698;2023-02-27T01:00:27;6.20;50.40
66928;DHT22;59882;45.624;11.698;2023-02-27T01:02:53;6.20;50.40
66928;DHT22;59882;45.624;11.698;2023-02-27T01:05:19;6.20;50.60
66928;DHT22;59882;45.624;11.698;2023-02-27T01:07:45;6.20;50.30
66928;DHT22;59882;45.624;11.698;2023-02-27T01:10:11;6.20;50.50
66928;DHT22;59882;45.624;11.698;2023-02-27T01:12:37;6.20;50.50
66928;DHT22;59882;45.624;11.698;2023-02-27T01:15:04;6.30;50.40
66928;DHT22;59882;45.624;11.698;2023-02-27T01:17:31;6.20;50.50
66928;DHT22;59882;45.624;11.698;2023-02-27T01:19:57;6.20;50.50
66928;DHT22;59882;45.624;11.698;2023-02-27T01:22:23;6.30;50.50
66928;DHT22;59882;45.624;11.698;2023-02-27T01:24:49;6.20;50.40
66928;DHT22;59882;45.624;11.698;2023-02-27T01:27:15;6.20;50.30
66928;DHT22;59882;45.624;11.698;2023-02-27T01:29:40;6.20;50.30
66928;DHT22;59882;45.624;11.698;2023-02-27T01:32:06;6.20;50.40
66928;DHT22;59882;45.624;11.698;2023-02-27T01:34:32;6.20;50.20
66928;DHT22;59882;45.624;11.698;2023-02-27T01:36:57;6.20;50.40
66928;DHT22;59882;45.624;11.698;2023-02-27T01:39:23;6.20;50.70
66928;DHT22;59882;45.624;11.698;2023-02-27T01:41:50;6.10;50.40
66928;DHT22;59882;45.624;11.698;2023-02-27T01:44:16;6.20;50.50
66928;DHT22;59882;45.624;11.698;2023-02-27T01:46:41;6.10;50.10
66928;DHT22;59882;45.624;11.698;2023-02-27T01:49:30;6.10;50.30
66928;DHT22;59882;45.624;11.698;2023-02-27T01:52:03;6.20;50.60
66928;DHT22;59882;45.624;11.698;2023-02-27T01:54:35;6.10;50.90
66928;DHT22;59882;45.624;11.698;2023-02-27T01:57:03;6.20;50.60
66928;DHT22;59882;45.624;11.698;2023-02-27T01:59:32;6.10;50.50
66928;DHT22;59882;45.624;11.698;2023-02-27T02:01:57;6.20;50.60
66928;DHT22;59882;45.624;11.698;2023-02-27T02:04:30;6.20;50.60
66928;DHT22;59882;45.624;11.698;2023-02-27T02:07:00;6.20;50.90
66928;DHT22;59882;45.624;11.698;2023-02-27T02:09:27;6.20;50.50
66928;DHT22;59882;45.624;11.698;2023-02-27T02:11:54;6.20;50.50
66928;DHT22;59882;45.624;11.698;2023-02-27T02:14:21;6.20;50.50
66928;DHT22;59882;45.624;11.698;2023-02-27T02:19:51;6.20;51.00
66928;DHT22;59882;45.624;11.698;2023-02-27T02:41:17;6.10;51.00
66928;DHT22;59882;45.624;11.698;2023-02-27T02:44:02;6.10;51.00
66928;DHT22;59882;45.624;11.698;2023-02-27T02:49:09;6.10;51.20
66928;DHT22;59882;45.624;11.698;2023-02-27T02:51:48;6.10;51.40
66928;DHT22;59882;45.624;11.698;2023-02-27T02:54:37;6.10;51.30
66928;DHT22;59882;45.624;11.698;2023-02-27T02:57:16;6.10;51.30
66928;DHT22;59882;45.624;11.698;2023-02-27T03:02:25;6.10;51.20
66928;DHT22;59882;45.624;11.698;2023-02-27T03:04:59;6.10;51.30
66928;DHT22;59882;45.624;11.698;2023-02-27T03:07:36;6.10;51.50
66928;DHT22;59882;45.624;11.698;2023-02-27T03:10:11;6.10;51.60
66928;DHT22;59882;45.624;11.698;2023-02-27T03:12:41;6.10;51.70
66928;DHT22;59882;45.624;11.698;2023-02-27T03:15:18;6.10;51.80
66928;DHT22;59882;45.624;11.698;2023-02-27T03:20:20;6.00;51.80
66928;DHT22;59882;45.624;11.698;2023-02-27T03:22:49;6.10;51.70
66928;DHT22;59882;45.624;11.698;2023-02-27T03:25:17;6.10;51.90
66928;DHT22;59882;45.624;11.698;2023-02-27T03:27:54;6.10;51.60
66928;DHT22;59882;45.624;11.698;2023-02-27T03:46:25;6.10;50.60
66928;DHT22;59882;45.624;11.698;2023-02-27T03:48:52;6.10;50.80
66928;DHT22;59882;45.624;11.698;2023-02-27T03:51:19;6.10;51.00
66928;DHT22;59882;45.624;11.698;2023-02-27T03:56:49;6.10;50.90
66928;DHT22;59882;45.624;11.698;2023-02-27T03:59:15;6.10;50.80
66928;DHT22;59882;45.624;11.698;2023-02-27T04:01:42;6.10;50.40
66928;DHT22;59882;45.624;11.698;2023-02-27T04:04:14;6.10;50.40
66928;DHT22;59882;45.624;11.698;2023-02-27T04:07:27;6.20;50.10
66928;DHT22;59882;45.624;11.698;2023-02-27T04:20:36;6.20;50.10
66928;DHT22;59882;45.624;11.698;2023-02-27T04:23:16;6.20;49.60
66928;DHT22;59882;45.624;11.698;2023-02-27T04:28:52;6.20;49.60
66928;DHT22;59882;45.624;11.698;2023-02-27T04:31:29;6.20;49.30
66928;DHT22;59882;45.624;11.698;2023-02-27T04:34:09;6.20;49.40
66928;DHT22;59882;45.624;11.698;2023-02-27T04:36:45;6.20;49.50
66928;DHT22;59882;45.624;11.698;2023-02-27T04:39:20;6.20;49.50
66928;DHT22;59882;45.624;11.698;2023-02-27T04:41:53;6.20;49.20
66928;DHT22;59882;45.624;11.698;2023-02-27T04:44:21;6.20;49.30
66928;DHT22;59882;45.624;11.698;2023-02-27T04:46:49;6.20;49.30
66928;DHT22;59882;45.624;11.698;2023-02-27T04:49:23;6.20;49.10
66928;DHT22;59882;45.624;11.698;2023-02-27T04:51:58;6.20;49.20
66928;DHT22;59882;45.624;11.698;2023-02-27T04:54:37;6.20;49.30
66928;DHT22;59882;45.624;11.698;2023-02-27T04:57:08;6.20;49.50
66928;DHT22;59882;45.624;11.698;2023-02-27T04:59:46;6.20;49.60
66928;DHT22;59882;45.624;11.698;2023-02-27T05:02:22;6.20;49.70
66928;DHT22;59882;45.624;11.698;2023-02-27T05:04:55;6.20;49.80
66928;DHT22;59882;45.624;11.698;2023-02-27T05:07:26;6.20;49.80
66928;DHT22;59882;45.624;11.698;2023-02-27T05:10:06;6.20;50.20
66928;DHT22;59882;45.624;11.698;2023-02-27T05:15:52;6.20;50.40
66928;DHT22;59882;45.624;11.698;2023-02-27T05:18:04;6.20;50.40
66928;DHT22;59882;45.624;11.698;2023-02-27T05:23:13;6.20;50.80
66928;DHT22;59882;45.624;11.698;2023-02-27T05:26:16;6.20;50.60
66928;DHT22;59882;45.624;11.698;2023-02-27T05:29:08;6.20;50.60
66928;DHT22;59882;45.624;11.698;2023-02-27T05:31:49;6.20;51.00
66928;DHT22;59882;45.624;11.698;2023-02-27T05:34:28;6.20;51.20
66928;DHT22;59882;45.624;11.698;2023-02-27T05:37:02;6.20;51.40
66928;DHT22;59882;45.624;11.698;2023-02-27T05:39:31;6.20;51.20
66928;DHT22;59882;45.624;11.698;2023-02-27T05:42:12;6.20;51.20
66928;DHT22;59882;45.624;11.698;2023-02-27T05:44:44;6.10;51.30
66928;DHT22;59882;45.624;11.698;2023-02-27T05:47:17;6.10;51.30
66928;DHT22;59882;45.624;11.698;2023-02-27T05:49:58;6.10;51.00
66928;DHT22;59882;45.624;11.698;2023-02-27T05:52:26;6.10;51.30
66928;DHT22;59882;45.624;11.698;2023-02-27T05:58:06;6.10;51.10
66928;DHT22;59882;45.624;11.698;2023-02-27T06:00:20;6.10;50.80
66928;DHT22;59882;45.624;11.698;2023-02-27T06:02:47;6.10;50.90
66928;DHT22;59882;45.624;11.698;2023-02-27T06:05:14;6.10;50.90
66928;DHT22;59882;45.624;11.698;2023-02-27T06:07:40;6.10;50.70
66928;DHT22;59882;45.624;11.698;2023-02-27T06:10:06;6.10;50.80
66928;DHT22;59882;45.624;11.698;2023-02-27T06:12:32;6.20;50.70
66928;DHT22;59882;45.624;11.698;2023-02-27T06:14:58;6.10;50.60
66928;DHT22;59882;45.624;11.698;2023-02-27T06:17:24;6.10;50.50
66928;DHT22;59882;45.624;11.698;2023-02-27T06:19:49;6.10;50.20
66928;DHT22;59882;45.624;11.698;2023-02-27T06:22:15;6.10;50.30
66928;DHT22;59882;45.624;11.698;2023-02-27T06:24:40;6.10;50.30
66928;DHT22;59882;45.624;11.698;2023-02-27T06:27:06;6.10;50.40
66928;DHT22;59882;45.624;11.698;2023-02-27T06:29:32;6.10;49.90
66928;DHT22;59882;45.624;11.698;2023-02-27T06:31:57;6.10;50.30
66928;DHT22;59882;45.624;11.698;2023-02-27T06:34:23;6.10;49.50
66928;DHT22;59882;45.624;11.698;2023-02-27T06:36:49;6.00;50.00
66928;DHT22;59882;45.624;11.698;2023-02-27T06:39:14;6.10;50.00
66928;DHT22;59882;45.624;11.698;2023-02-27T06:41:41;6.10;50.40
66928;DHT22;59882;45.624;11.698;2023-02-27T06:44:06;6.10;50.70
66928;DHT22;59882;45.624;11.698;2023-02-27T06:46:32;6.10;50.60
66928;DHT22;59882;45.624;11.698;2023-02-27T06:48:57;6.10;50.70
66928;DHT22;59882;45.624;11.698;2023-02-27T06:51:23;6.10;50.20
66928;DHT22;59882;45.624;11.698;2023-02-27T06:53:49;6.10;50.30
66928;DHT22;59882;45.624;11.698;2023-02-27T06:56:14;6.20;50.10
66928;DHT22;59882;45.624;11.698;2023-02-27T06:58:40;6.20;50.40
66928;DHT22;59882;45.624;11.698;2023-02-27T07:01:06;6.20;50.10
66928;DHT22;59882;45.624;11.698;2023-02-27T07:03:31;6.30;50.20
66928;DHT22;59882;45.624;11.698;2023-02-27T07:05:57;6.20;49.70
66928;DHT22;59882;45.624;11.698;2023-02-27T07:08:23;6.30;50.20
66928;DHT22;59882;45.624;11.698;2023-02-27T07:10:49;6.30;50.30
66928;DHT22;59882;45.624;11.698;2023-02-27T07:13:16;6.30;50.60
66928;DHT22;59882;45.624;11.698;2023-02-27T07:15:41;6.30;50.20
66928;DHT22;59882;45.624;11.698;2023-02-27T07:18:09;6.30;50.20
66928;DHT22;59882;45.624;11.698;2023-02-27T07:20:34;6.30;50.30
66928;DHT22;59882;45.624;11.698;2023-02-27T07:23:00;6.20;50.30
66928;DHT22;59882;45.624;11.698;2023-02-27T07:25:26;6.30;50.30
66928;DHT22;59882;45.624;11.698;2023-02-27T07:27:51;6.30;50.30
66928;DHT22;59882;45.624;11.698;2023-02-27T07:30:17;6.30;50.50
66928;DHT22;59882;45.624;11.698;2023-02-27T07:32:44;6.30;50.60
66928;DHT22;59882;45.624;11.698;2023-02-27T07:35:10;6.30;50.50
66928;DHT22;59882;45.624;11.698;2023-02-27T07:37:36;6.40;49.90
66928;DHT22;59882;45.624;11.698;2023-02-27T07:40:03;6.40;50.10
66928;DHT22;59882;45.624;11.698;2023-02-27T07:42:29;6.40;50.20
66928;DHT22;59882;45.624;11.698;2023-02-27T07:44:55;6.40;50.30
66928;DHT22;59882;45.624;11.698;2023-02-27T07:47:21;6.40;50.10
66928;DHT22;59882;45.624;11.698;2023-02-27T07:49:46;6.40;49.50
66928;DHT22;59882;45.624;11.698;2023-02-27T07:52:12;6.40;49.60
66928;DHT22;59882;45.624;11.698;2023-02-27T07:54:38;6.40;49.60
66928;DHT22;59882;45.624;11.698;2023-02-27T07:57:04;6.50;49.70
66928;DHT22;59882;45.624;11.698;2023-02-27T07:59:30;6.50;49.50
66928;DHT22;59882;45.624;11.698;2023-02-27T08:01:55;6.50;49.90
66928;DHT22;59882;45.624;11.698;2023-02-27T08:04:21;6.60;49.80
66928;DHT22;59882;45.624;11.698;2023-02-27T08:06:46;6.60;49.50
66928;DHT22;59882;45.624;11.698;2023-02-27T08:09:12;6.70;49.70
66928;DHT22;59882;45.624;11.698;2023-02-27T08:11:38;6.70;49.70
66928;DHT22;59882;45.624;11.698;2023-02-27T08:14:03;6.80;49.60
66928;DHT22;59882;45.624;11.698;2023-02-27T08:16:29;6.80;49.80
66928;DHT22;59882;45.624;11.698;2023-02-27T08:18:55;6.90;48.90
66928;DHT22;59882;45.624;11.698;2023-02-27T08:21:21;6.90;47.90
66928;DHT22;59882;45.624;11.698;2023-02-27T08:23:47;6.90;48.60
66928;DHT22;59882;45.624;11.698;2023-02-27T08:26:13;6.90;48.90
66928;DHT22;59882;45.624;11.698;2023-02-27T08:28:39;7.00;48.00
66928;DHT22;59882;45.624;11.698;2023-02-27T08:31:05;7.00;48.40
66928;DHT22;59882;45.624;11.698;2023-02-27T08:33:32;7.10;48.30
66928;DHT22;59882;45.624;11.698;2023-02-27T08:35:58;7.10;48.00
66928;DHT22;59882;45.624;11.698;2023-02-27T08:38:23;7.10;48.10
66928;DHT22;59882;45.624;11.698;2023-02-27T08:40:50;7.10;47.70
66928;DHT22;59882;45.624;11.698;2023-02-27T08:43:21;7.20;48.10
66928;DHT22;59882;45.624;11.698;2023-02-27T08:45:47;7.30;46.90
66928;DHT22;59882;45.624;11.698;2023-02-27T08:48:13;7.30;47.90
66928;DHT22;59882;45.624;11.698;2023-02-27T08:50:40;7.40;47.60
66928;DHT22;59882;45.624;11.698;2023-02-27T08:53:06;7.50;47.50
66928;DHT22;59882;45.624;11.698;2023-02-27T08:55:32;7.50;46.80
66928;DHT22;59882;45.624;11.698;2023-02-27T08:57:58;7.60;47.40
66928;DHT22;59882;45.624;11.698;2023-02-27T09:00:23;7.60;47.10
66928;DHT22;59882;45.624;11.698;2023-02-27T09:02:49;7.70;47.20
66928;DHT22;59882;45.624;11.698;2023-02-27T09:05:15;7.80;46.50
66928;DHT22;59882;45.624;11.698;2023-02-27T09:07:41;7.90;45.10
66928;DHT22;59882;45.624;11.698;2023-02-27T09:10:08;7.90;44.00
66928;DHT22;59882;45.624;11.698;2023-02-27T09:12:34;8.00;45.50
66928;DHT22;59882;45.624;11.698;2023-02-27T09:14:59;8.00;45.30
66928;DHT22;59882;45.624;11.698;2023-02-27T09:17:25;8.10;45.50
66928;DHT22;59882;45.624;11.698;2023-02-27T09:19:50;8.20;45.40
66928;DHT22;59882;45.624;11.698;2023-02-27T09:22:17;8.20;44.40
66928;DHT22;59882;45.624;11.698;2023-02-27T09:24:44;8.30;45.30
66928;DHT22;59882;45.624;11.698;2023-02-27T09:27:09;8.30;44.30
66928;DHT22;59882;45.624;11.698;2023-02-27T09:29:35;8.40;43.30
66928;DHT22;59882;45.624;11.698;2023-02-27T09:32:01;8.40;43.60
66928;DHT22;59882;45.624;11.698;2023-02-27T09:34:26;8.30;43.50
66928;DHT22;59882;45.624;11.698;2023-02-27T09:36:52;8.30;44.30
66928;DHT22;59882;45.624;11.698;2023-02-27T09:39:17;8.40;43.70
66928;DHT22;59882;45.624;11.698;2023-02-27T09:42:05;8.30;43.50
66928;DHT22;59882;45.624;11.698;2023-02-27T09:47:04;8.30;42.80
66928;DHT22;59882;45.624;11.698;2023-02-27T09:49:34;8.20;42.60
66928;DHT22;59882;45.624;11.698;2023-02-27T09:52:05;8.20;43.20
66928;DHT22;59882;45.624;11.698;2023-02-27T09:54:32;8.20;43.40
66928;DHT22;59882;45.624;11.698;2023-02-27T09:57:02;8.20;43.80
66928;DHT22;59882;45.624;11.698;2023-02-27T10:00:00;8.30;43.50
66928;DHT22;59882;45.624;11.698;2023-02-27T10:08:25;8.60;43.40
66928;DHT22;59882;45.624;11.698;2023-02-27T10:11:04;8.80;43.50
66928;DHT22;59882;45.624;11.698;2023-02-27T10:16:13;9.00;40.50
66928;DHT22;59882;45.624;11.698;2023-02-27T10:21:38;9.20;41.90
66928;DHT22;59882;45.624;11.698;2023-02-27T10:24:22;9.30;41.80
66928;DHT22;59882;45.624;11.698;2023-02-27T10:26:51;9.50;41.00
66928;DHT22;59882;45.624;11.698;2023-02-27T10:31:59;9.80;40.60
66928;DHT22;59882;45.624;11.698;2023-02-27T10:34:28;10.00;40.90
66928;DHT22;59882;45.624;11.698;2023-02-27T10:36:56;10.20;39.30
66928;DHT22;59882;45.624;11.698;2023-02-27T10:39:23;10.30;38.90
66928;DHT22;59882;45.624;11.698;2023-02-27T10:41:50;10.40;39.80
66928;DHT22;59882;45.624;11.698;2023-02-27T10:44:16;10.50;38.90
66928;DHT22;59882;45.624;11.698;2023-02-27T10:46:43;10.60;38.70
66928;DHT22;59882;45.624;11.698;2023-02-27T10:49:17;10.60;39.30
66928;DHT22;59882;45.624;11.698;2023-02-27T10:51:44;10.80;37.80
66928;DHT22;59882;45.624;11.698;2023-02-27T10:56:40;10.90;38.60
66928;DHT22;59882;45.624;11.698;2023-02-27T10:59:17;10.90;35.50
66928;DHT22;59882;45.624;11.698;2023-02-27T11:01:46;10.90;37.50
66928;DHT22;59882;45.624;11.698;2023-02-27T11:04:13;10.90;37.40
66928;DHT22;59882;45.624;11.698;2023-02-27T11:06:50;10.90;35.60
66928;DHT22;59882;45.624;11.698;2023-02-27T11:09:24;10.90;36.90
66928;DHT22;59882;45.624;11.698;2023-02-27T11:11:50;10.90;36.80
66928;DHT22;59882;45.624;11.698;2023-02-27T11:14:31;10.90;36.60
66928;DHT22;59882;45.624;11.698;2023-02-27T11:17:00;10.90;35.80
66928;DHT22;59882;45.624;11.698;2023-02-27T11:19:37;10.90;37.10
66928;DHT22;59882;45.624;11.698;2023-02-27T11:22:14;10.90;36.50
66928;DHT22;59882;45.624;11.698;2023-02-27T11:24:41;10.90;35.80
66928;DHT22;59882;45.624;11.698;2023-02-27T11:27:26;10.90;37.10
66928;DHT22;59882;45.624;11.698;2023-02-27T11:30:08;11.00;36.50
66928;DHT22;59882;45.624;11.698;2023-02-27T11:32:45;11.00;36.70
66928;DHT22;59882;45.624;11.698;2023-02-27T11:35:33;11.10;35.80
66928;DHT22;59882;45.624;11.698;2023-02-27T11:38:03;11.20;36.80
66928;DHT22;59882;45.624;11.698;2023-02-27T11:40:31;11.20;35.70
66928;DHT22;59882;45.624;11.698;2023-02-27T11:43:21;11.30;34.90
66928;DHT22;59882;45.624;11.698;2023-02-27T11:46:05;11.30;35.20
66928;DHT22;59882;45.624;11.698;2023-02-27T12:04:28;11.70;35.10
66928;DHT22;59882;45.624;11.698;2023-02-27T12:15:26;12.30;33.30
66928;DHT22;59882;45.624;11.698;2023-02-27T12:18:11;12.30;34.10
66928;DHT22;59882;45.624;11.698;2023-02-27T12:23:46;12.20;33.60
66928;DHT22;59882;45.624;11.698;2023-02-27T12:26:32;12.10;32.70
66928;DHT22;59882;45.624;11.698;2023-02-27T12:29:12;12.10;33.40
66928;DHT22;59882;45.624;11.698;2023-02-27T12:34:50;12.30;33.20
66928;DHT22;59882;45.624;11.698;2023-02-27T12:37:28;12.40;33.90
66928;DHT22;59882;45.624;11.698;2023-02-27T12:39:57;12.20;32.50
66928;DHT22;59882;45.624;11.698;2023-02-27T12:51:20;12.00;35.20
66928;DHT22;59882;45.624;11.698;2023-02-27T12:54:16;12.00;33.20
66928;DHT22;59882;45.624;11.698;2023-02-27T13:02:48;11.80;34.30
66928;DHT22;59882;45.624;11.698;2023-02-27T13:08:11;11.60;34.80
66928;DHT22;59882;45.624;11.698;2023-02-27T13:10:46;11.60;34.50
66928;DHT22;59882;45.624;11.698;2023-02-27T13:15:58;11.50;34.90
66928;DHT22;59882;45.624;11.698;2023-02-27T13:24:21;11.40;34.90
66928;DHT22;59882;45.624;11.698;2023-02-27T13:27:06;11.30;36.10
66928;DHT22;59882;45.624;11.698;2023-02-27T13:29:38;11.40;35.90
66928;DHT22;59882;45.624;11.698;2023-02-27T13:32:42;11.30;35.70
66928;DHT22;59882;45.624;11.698;2023-02-27T13:37:59;11.00;36.00
66928;DHT22;59882;45.624;11.698;2023-02-27T13:40:40;10.80;36.10
66928;DHT22;59882;45.624;11.698;2023-02-27T13:43:36;10.70;36.30
66928;DHT22;59882;45.624;11.698;2023-02-27T13:46:03;10.60;36.30
66928;DHT22;59882;45.624;11.698;2023-02-27T13:48:47;10.50;36.80
66928;DHT22;59882;45.624;11.698;2023-02-27T13:51:43;10.50;37.10
66928;DHT22;59882;45.624;11.698;2023-02-27T13:56:48;10.50;37.30
66928;DHT22;59882;45.624;11.698;2023-02-27T13:59:21;10.40;37.20
66928;DHT22;59882;45.624;11.698;2023-02-27T14:01:53;10.40;36.70
66928;DHT22;59882;45.624;11.698;2023-02-27T14:04:21;10.30;37.90
66928;DHT22;59882;45.624;11.698;2023-02-27T14:06:47;10.30;37.00
66928;DHT22;59882;45.624;11.698;2023-02-27T14:09:19;10.30;37.40
66928;DHT22;59882;45.624;11.698;2023-02-27T14:11:54;10.30;37.90
66928;DHT22;59882;45.624;11.698;2023-02-27T14:14:41;10.30;38.10
66928;DHT22;59882;45.624;11.698;2023-02-27T14:17:12;10.40;38.30
66928;DHT22;59882;45.624;11.698;2023-02-27T14:24:45;10.40;37.60
66928;DHT22;59882;45.624;11.698;2023-02-27T14:29:45;10.20;37.60
66928;DHT22;59882;45.624;11.698;2023-02-27T14:32:20;10.20;37.40
66928;DHT22;59882;45.624;11.698;2023-02-27T14:34:47;10.20;38.40
66928;DHT22;59882;45.624;11.698;2023-02-27T14:37:16;10.20;38.40
66928;DHT22;59882;45.624;11.698;2023-02-27T14:39:43;10.20;38.70
66928;DHT22;59882;45.624;11.698;2023-02-27T14:44:55;10.20;38.60
66928;DHT22;59882;45.624;11.698;2023-02-27T14:47:35;10.20;38.30
66928;DHT22;59882;45.624;11.698;2023-02-27T14:50:52;10.10;38.10
66928;DHT22;59882;45.624;11.698;2023-02-27T14:52:53;10.10;38.50
66928;DHT22;59882;45.624;11.698;2023-02-27T14:55:24;10.00;38.60
66928;DHT22;59882;45.624;11.698;2023-02-27T14:58:17;10.00;38.90
66928;DHT22;59882;45.624;11.698;2023-02-27T15:01:22;10.00;39.00
66928;DHT22;59882;45.624;11.698;2023-02-27T15:03:51;9.90;39.00
66928;DHT22;59882;45.624;11.698;2023-02-27T15:06:40;9.90;39.40
66928;DHT22;59882;45.624;11.698;2023-02-27T15:09:07;9.90;39.50
66928;DHT22;59882;45.624;11.698;2023-02-27T15:11:33;9.90;39.90
66928;DHT22;59882;45.624;11.698;2023-02-27T15:14:01;9.90;40.10
66928;DHT22;59882;45.624;11.698;2023-02-27T15:16:37;9.80;40.20
66928;DHT22;59882;45.624;11.698;2023-02-27T15:19:14;9.80;40.00
66928;DHT22;59882;45.624;11.698;2023-02-27T15:21:44;9.70;40.00
66928;DHT22;59882;45.624;11.698;2023-02-27T15:27:00;9.80;39.90
66928;DHT22;59882;45.624;11.698;2023-02-27T15:29:34;9.80;41.10
66928;DHT22;59882;45.624;11.698;2023-02-27T15:32:02;9.80;40.70
66928;DHT22;59882;45.624;11.698;2023-02-27T15:34:29;9.80;40.60
66928;DHT22;59882;45.624;11.698;2023-02-27T15:36:56;9.80;40.50
66928;DHT22;59882;45.624;11.698;2023-02-27T15:39:30;9.80;40.30
66928;DHT22;59882;45.624;11.698;2023-02-27T15:42:03;9.80;40.80
66928;DHT22;59882;45.624;11.698;2023-02-27T15:44:39;9.80;40.50
66928;DHT22;59882;45.624;11.698;2023-02-27T15:47:06;9.80;40.50
66928;DHT22;59882;45.624;11.698;2023-02-27T15:49:35;9.80;40.50
66928;DHT22;59882;45.624;11.698;2023-02-27T15:52:22;9.80;40.80
66928;DHT22;59882;45.624;11.698;2023-02-27T15:54:58;9.80;40.80
66928;DHT22;59882;45.624;11.698;2023-02-27T15:57:25;9.80;41.30
66928;DHT22;59882;45.624;11.698;2023-02-27T15:59:51;9.80;41.00
66928;DHT22;59882;45.624;11.698;2023-02-27T16:02:30;9.60;41.10
66928;DHT22;59882;45.624;11.698;2023-02-27T16:04:58;9.60;41.10
66928;DHT22;59882;45.624;11.698;2023-02-27T16:07:25;9.60;41.40
66928;DHT22;59882;45.624;11.698;2023-02-27T16:09:54;9.50;41.00
66928;DHT22;59882;45.624;11.698;2023-02-27T16:15:26;9.40;40.80
66928;DHT22;59882;45.624;11.698;2023-02-27T16:25:42;9.30;41.50
66928;DHT22;59882;45.624;11.698;2023-02-27T16:28:13;9.20;42.00
66928;DHT22;59882;45.624;11.698;2023-02-27T16:30:40;9.10;42.00
66928;DHT22;59882;45.624;11.698;2023-02-27T16:33:14;9.10;42.10
66928;DHT22;59882;45.624;11.698;2023-02-27T16:35:43;9.10;42.40
66928;DHT22;59882;45.624;11.698;2023-02-27T16:38:10;9.00;42.50
66928;DHT22;59882;45.624;11.698;2023-02-27T16:40:36;9.10;42.60
66928;DHT22;59882;45.624;11.698;2023-02-27T16:43:02;9.10;42.80
66928;DHT22;59882;45.624;11.698;2023-02-27T16:45:28;9.00;43.10
66928;DHT22;59882;45.624;11.698;2023-02-27T16:47:57;8.90;43.40
66928;DHT22;59882;45.624;11.698;2023-02-27T16:50:27;8.90;43.40
66928;DHT22;59882;45.624;11.698;2023-02-27T16:52:55;8.80;43.60
66928;DHT22;59882;45.624;11.698;2023-02-27T16:55:22;8.90;43.70
66928;DHT22;59882;45.624;11.698;2023-02-27T16:57:48;8.80;43.80
66928;DHT22;59882;45.624;11.698;2023-02-27T17:00:14;8.80;43.80
66928;DHT22;59882;45.624;11.698;2023-02-27T17:02:40;8.70;44.30
66928;DHT22;59882;45.624;11.698;2023-02-27T17:05:07;8.60;44.20
66928;DHT22;59882;45.624;11.698;2023-02-27T17:07:33;8.60;44.00
66928;DHT22;59882;45.624;11.698;2023-02-27T17:09:59;8.60;44.30
66928;DHT22;59882;45.624;11.698;2023-02-27T17:12:25;8.50;44.20
66928;DHT22;59882;45.624;11.698;2023-02-27T17:14:51;8.50;44.60
66928;DHT22;59882;45.624;11.698;2023-02-27T17:17:17;8.50;44.70
66928;DHT22;59882;45.624;11.698;2023-02-27T17:19:43;8.50;44.40
66928;DHT22;59882;45.624;11.698;2023-02-27T17:22:09;8.40;44.50
66928;DHT22;59882;45.624;11.698;2023-02-27T17:24:36;8.30;44.60
66928;DHT22;59882;45.624;11.698;2023-02-27T17:27:02;8.30;44.50
66928;DHT22;59882;45.624;11.698;2023-02-27T17:29:28;8.30;44.50
66928;DHT22;59882;45.624;11.698;2023-02-27T17:31:53;8.30;44.50
66928;DHT22;59882;45.624;11.698;2023-02-27T17:34:19;8.20;44.90
66928;DHT22;59882;45.624;11.698;2023-02-27T17:36:45;8.30;45.00
66928;DHT22;59882;45.624;11.698;2023-02-27T17:39:11;8.30;45.50
66928;DHT22;59882;45.624;11.698;2023-02-27T17:41:39;8.30;45.30
66928;DHT22;59882;45.624;11.698;2023-02-27T17:44:05;8.30;45.40
66928;DHT22;59882;45.624;11.698;2023-02-27T17:46:31;8.30;45.40
66928;DHT22;59882;45.624;11.698;2023-02-27T17:48:57;8.30;45.60
66928;DHT22;59882;45.624;11.698;2023-02-27T17:51:26;8.20;45.80
66928;DHT22;59882;45.624;11.698;2023-02-27T17:53:52;8.20;46.20
66928;DHT22;59882;45.624;11.698;2023-02-27T17:56:18;8.20;46.00
66928;DHT22;59882;45.624;11.698;2023-02-27T17:58:44;8.20;46.00
66928;DHT22;59882;45.624;11.698;2023-02-27T18:01:13;8.20;46.00
66928;DHT22;59882;45.624;11.698;2023-02-27T18:03:40;8.20;46.20
66928;DHT22;59882;45.624;11.698;2023-02-27T18:06:06;8.10;46.00
66928;DHT22;59882;45.624;11.698;2023-02-27T18:08:32;8.10;45.90
66928;DHT22;59882;45.624;11.698;2023-02-27T18:10:58;8.10;45.90
66928;DHT22;59882;45.624;11.698;2023-02-27T18:13:24;8.10;46.00
66928;DHT22;59882;45.624;11.698;2023-02-27T18:15:52;8.10;46.00
66928;DHT22;59882;45.624;11.698;2023-02-27T18:18:19;8.10;46.00
66928;DHT22;59882;45.624;11.698;2023-02-27T18:20:45;8.10;45.90
66928;DHT22;59882;45.624;11.698;2023-02-27T18:23:11;8.00;45.90
66928;DHT22;59882;45.624;11.698;2023-02-27T18:25:37;8.00;45.50
66928;DHT22;59882;45.624;11.698;2023-02-27T18:28:04;7.90;46.00
66928;DHT22;59882;45.624;11.698;2023-02-27T18:30:31;7.90;46.00
66928;DHT22;59882;45.624;11.698;2023-02-27T18:32:59;7.80;46.30
66928;DHT22;59882;45.624;11.698;2023-02-27T18:35:25;7.80;46.60
66928;DHT22;59882;45.624;11.698;2023-02-27T18:37:51;7.80;46.70
66928;DHT22;59882;45.624;11.698;2023-02-27T18:40:17;7.70;46.70
66928;DHT22;59882;45.624;11.698;2023-02-27T18:42:45;7.70;46.70